Time;durP1;ratioP1;P1;durP2;ratioP2;P2;SDS_P1;SDS_P2;PMS_P1;PMS_P2;Temp;Humidity;BMP_temperature;BMP_pressure;BME280_temperature;BME280_humidity;BME280_pressure;Samples;Min_cycle;Max_cycle;Signal;HPM_P1;HPM_P2
2022/04/02 00:01:41;;;;;;;6.77;2.50;;;;;;;9.44;45.08;101435.88;4998037;28;20038;-48
2022/04/02 00:04:08;;;;;;;5.05;2.30;;;;;;;9.49;44.79;101440.69;5014702;28;20038;-48
2022/04/02 00:06:34;;;;;;;4.25;2.28;;;;;;;9.48;44.89;101437.22;5014581;28;20045;-47
2022/04/02 00:09:00;;;;;;;11.05;2.92;;;;;;;9.29;44.94;101439.28;5014600;28;20102;-47
2022/04/02 00:11:25;;;;;;;8.63;2.58;;;;;;;9.45;44.56;101437.53;5014675;28;20042;-46
2022/04/02 00:13:51;;;;;;;4.83;2.23;;;;;;;9.50;44.87;101434.34;5015161;28;20038;-53
2022/04/02 00:16:16;;;;;;;5.07;2.17;;;;;;;9.50;45.08;101432.53;5015670;28;20273;-50
2022/04/02 00:18:42;;;;;;;6.53;2.30;;;;;;;9.29;45.22;101433.94;5015843;28;20053;-48
2022/04/02 00:21:08;;;;;;;4.70;2.10;;;;;;;9.39;44.94;101439.06;5015981;28;20033;-51
2022/04/02 00:23:39;;;;;;;5.85;2.25;;;;;;;9.43;45.27;101444.88;5015716;28;20038;-48
2022/04/02 00:26:07;;;;;;;5.00;2.90;;;;;;;9.40;45.03;101432.72;5015235;28;20049;-48
2022/04/02 00:28:34;;;;;;;5.10;2.67;;;;;;;9.37;45.03;101440.25;5015408;28;20034;-51
2022/04/02 00:31:00;;;;;;;7.03;2.50;;;;;;;9.38;44.94;101442.75;4999009;28;20040;-48
2022/04/02 00:33:25;;;;;;;5.23;2.40;;;;;;;9.48;44.69;101437.22;4998005;28;20034;-47
2022/04/02 00:35:50;;;;;;;7.23;2.30;;;;;;;9.28;45.13;101442.94;5015343;28;20034;-49
2022/04/02 00:38:16;;;;;;;5.00;1.90;;;;;;;9.26;45.33;101444.97;5015183;28;20042;-50
2022/04/02 00:40:42;;;;;;;6.27;2.40;;;;;;;9.38;45.22;101449.91;4998555;28;20312;-51
2022/04/02 00:43:20;;;;;;;4.75;2.30;;;;;;;9.37;45.01;101445.56;5015013;28;20129;-49
2022/04/02 00:45:46;;;;;;;5.88;2.78;;;;;;;9.23;45.50;101442.63;5015197;28;20046;-47
2022/04/02 00:48:12;;;;;;;3.85;2.63;;;;;;;9.26;45.85;101439.63;4998191;28;20049;-47
2022/04/02 00:50:39;;;;;;;5.60;2.40;;;;;;;9.26;45.55;101439.63;4995819;28;20030;-52
2022/04/02 00:53:04;;;;;;;7.03;2.33;;;;;;;9.36;45.64;101435.91;5008104;28;20061;-47
2022/04/02 00:55:31;;;;;;;5.37;2.40;;;;;;;9.51;45.33;101444.03;4997832;28;20046;-48
2022/04/02 00:57:58;;;;;;;7.70;2.72;;;;;;;9.40;45.43;101439.88;5014929;28;20035;-47
2022/04/02 01:00:25;;;;;;;7.53;2.30;;;;;;;9.39;45.74;101443.56;4997697;28;20046;-47
2022/04/02 01:02:51;;;;;;;7.35;2.63;;;;;;;9.41;45.71;101442.41;5014838;28;20031;-49
2022/04/02 01:05:18;;;;;;;7.13;2.42;;;;;;;9.35;46.05;101442.25;4997998;28;20044;-47
2022/04/02 01:07:43;;;;;;;6.38;2.58;;;;;;;9.35;46.26;101447.59;4997661;28;20038;-47
2022/04/02 01:10:09;;;;;;;5.40;2.40;;;;;;;9.38;46.30;101442.75;5015045;28;20038;-49
2022/04/02 01:12:35;;;;;;;7.38;3.05;;;;;;;9.11;46.93;101435.97;4997594;28;20046;-48
2022/04/02 01:15:01;;;;;;;5.72;2.72;;;;;;;9.31;46.46;101442.59;5013558;28;20034;-48
2022/04/02 01:17:40;;;;;;;8.88;2.30;;;;;;;9.32;46.43;101446.94;4997547;28;20042;-46
2022/04/02 01:20:09;;;;;;;5.70;2.50;;;;;;;8.89;47.17;101443.69;4997618;28;20038;-48
2022/04/02 01:22:36;;;;;;;7.05;2.40;;;;;;;8.89;47.27;101455.22;4997097;28;20045;-49
2022/04/02 01:25:08;;;;;;;5.38;1.90;;;;;;;8.96;46.91;101455.34;4981624;28;20030;-47
2022/04/02 01:27:44;;;;;;;7.90;2.72;;;;;;;8.93;47.10;101449.53;4997674;28;20180;-47
2022/04/02 01:30:10;;;;;;;4.78;2.38;;;;;;;8.88;48.42;101453.56;5014684;28;20056;-49
2022/04/02 01:32:36;;;;;;;5.75;2.42;;;;;;;8.99;47.19;101444.34;4997451;28;20444;-48
2022/04/02 01:35:11;;;;;;;3.65;2.10;;;;;;;8.92;47.07;101445.22;4997636;28;20030;-46
2022/04/02 01:37:38;;;;;;;9.82;3.38;;;;;;;8.89;46.80;101446.38;4997029;28;20038;-45
2022/04/02 01:40:08;;;;;;;4.55;2.22;;;;;;;9.06;47.89;101454.34;4997173;28;20030;-48
2022/04/02 01:42:41;;;;;;;5.85;2.83;;;;;;;9.04;46.94;101442.00;5000756;28;20131;-46
2022/04/02 01:45:10;;;;;;;4.93;2.53;;;;;;;8.96;46.86;101449.19;5014229;28;20027;-49
2022/04/02 01:47:44;;;;;;;5.78;2.42;;;;;;;9.06;47.13;101451.69;4997399;28;20030;-46
2022/04/02 01:50:13;;;;;;;7.30;2.25;;;;;;;9.10;46.58;101447.66;4997332;28;20049;-48
2022/04/02 01:52:43;;;;;;;5.20;2.17;;;;;;;9.08;46.84;101455.00;5013207;28;20497;-48
2022/04/02 01:55:14;;;;;;;4.18;2.05;;;;;;;8.92;46.69;101450.53;4997354;28;20106;-47
2022/04/02 01:57:43;;;;;;;6.78;2.58;;;;;;;8.90;46.56;101466.72;5014506;28;20036;-47
2022/04/02 02:00:14;;;;;;;6.18;2.65;;;;;;;8.82;46.35;101461.41;4997662;28;20102;-50
2022/04/02 02:02:41;;;;;;;3.70;2.10;;;;;;;9.00;46.13;101462.03;5014374;28;20042;-46
2022/04/02 02:05:07;;;;;;;;;;;;;;;9.05;45.57;101464.19;4997308;28;20032;-47
2022/04/02 02:07:32;;;;;;;5.77;2.57;;;;;;;9.05;45.89;101464.19;4997201;28;19918;-48
2022/04/02 02:09:58;;;;;;;5.80;2.00;;;;;;;8.89;46.28;101462.38;4997140;28;20049;-45
2022/04/02 02:12:43;;;;;;;4.70;1.90;;;;;;;8.88;46.07;101472.22;5014010;28;20078;-49
2022/04/02 02:15:19;;;;;;;4.68;2.10;;;;;;;8.99;46.22;101462.19;4996875;28;20035;-49
2022/04/02 02:17:56;;;;;;;14.10;3.35;;;;;;;9.18;45.04;101459.16;4996966;28;20037;-48
2022/04/02 02:20:21;;;;;;;6.37;2.23;;;;;;;9.03;45.54;101463.50;5012959;28;20042;-47
2022/04/02 02:22:49;;;;;;;4.07;1.73;;;;;;;8.93;46.10;101469.03;4996661;28;20067;-50
2022/04/02 02:25:17;;;;;;;7.05;2.50;;;;;;;9.06;45.12;101465.84;5014002;28;20041;-50
2022/04/02 02:27:45;;;;;;;6.40;2.22;;;;;;;9.07;45.30;101472.84;4996840;28;20038;-51
2022/04/02 02:30:13;;;;;;;5.15;1.92;;;;;;;9.03;45.31;101472.38;4996583;28;20098;-48
2022/04/02 02:32:39;;;;;;;8.15;2.30;;;;;;;9.00;45.17;101478.03;4995937;28;20215;-48
2022/04/02 02:38:06;;;;;;;5.03;2.50;;;;;;;9.06;44.99;101475.69;4987468;28;20488;-47
2022/04/02 02:40:39;;;;;;;4.97;2.45;;;;;;;9.11;45.29;101481.34;4999204;28;20206;-49
2022/04/02 02:43:07;;;;;;;5.28;2.50;;;;;;;9.10;44.89;101482.34;4992596;28;20050;-46
2022/04/02 02:45:35;;;;;;;6.50;2.50;;;;;;;9.06;45.43;101481.84;4996262;28;20031;-47
2022/04/02 02:48:02;;;;;;;4.93;2.37;;;;;;;9.01;44.83;101479.72;4993357;28;20034;-49
2022/04/02 02:50:39;;;;;;;5.68;1.77;;;;;;;9.10;44.71;101483.16;4996298;28;20113;-46
2022/04/02 02:53:05;;;;;;;4.27;2.60;;;;;;;9.11;45.20;101484.00;4996689;28;20038;-49
2022/04/02 02:55:31;;;;;;;27.10;5.13;;;;;;;8.97;44.77;101486.34;5011358;28;20288;-45
2022/04/02 02:58:02;;;;;;;7.35;2.85;;;;;;;9.08;44.92;101487.84;5017322;28;20034;-50
2022/04/02 03:00:29;;;;;;;4.50;1.90;;;;;;;8.84;45.14;101491.41;5000324;28;20034;-48
2022/04/02 03:02:58;;;;;;;4.93;2.10;;;;;;;8.62;45.86;101491.06;4999056;28;20037;-49
2022/04/02 03:05:28;;;;;;;5.75;2.35;;;;;;;8.47;46.01;101488.19;4996592;28;20126;-49
2022/04/02 03:07:57;;;;;;;4.38;1.83;;;;;;;8.56;46.99;101481.06;5000716;28;20046;-48
2022/04/02 03:10:31;;;;;;;6.65;2.55;;;;;;;8.58;46.37;101479.88;4996644;28;20037;-48
2022/04/02 03:12:58;;;;;;;5.57;2.57;;;;;;;8.59;45.88;101478.88;5015740;28;20053;-50
2022/04/02 03:15:28;;;;;;;4.38;1.90;;;;;;;8.62;45.95;101485.72;4999857;28;20030;-49
2022/04/02 03:18:05;;;;;;;5.53;2.17;;;;;;;8.53;46.05;101486.72;4996466;28;20050;-52
2022/04/02 03:20:32;;;;;;;3.53;1.75;;;;;;;8.42;46.38;101496.69;4999767;28;20053;-51
2022/04/02 03:22:58;;;;;;;;;;;;;;;8.36;46.51;101489.34;5015493;28;20045;-46
2022/04/02 03:25:25;;;;;;;4.50;2.00;;;;;;;8.30;46.91;101493.50;4996592;28;19945;-49
2022/04/02 03:27:53;;;;;;;8.07;2.58;;;;;;;8.41;46.86;101500.34;4999514;28;20089;-50
2022/04/02 03:30:23;;;;;;;5.40;2.33;;;;;;;8.54;46.26;101489.22;4996192;28;20030;-53
2022/04/02 03:32:52;;;;;;;4.38;2.17;;;;;;;8.22;47.00;101501.47;4999045;28;20045;-51
2022/04/02 03:35:18;;;;;;;5.32;2.00;;;;;;;8.45;46.59;101504.34;4999424;28;20094;-48
2022/04/02 03:37:50;;;;;;;5.53;2.42;;;;;;;8.05;48.36;101492.59;4996105;28;20027;-48
2022/04/02 03:40:18;;;;;;;5.35;1.90;;;;;;;8.56;46.98;101502.41;5009739;28;20038;-49
2022/04/02 03:42:45;;;;;;;7.28;1.98;;;;;;;8.57;46.67;101502.22;5016289;28;20042;-47
2022/04/02 03:45:14;;;;;;;8.63;2.30;;;;;;;8.56;46.60;101492.56;5012760;28;20097;-46
2022/04/02 03:47:44;;;;;;;4.95;1.90;;;;;;;8.58;46.60;101497.72;4999495;28;20505;-51
2022/04/02 03:50:11;;;;;;;4.78;2.22;;;;;;;8.30;47.23;101497.97;4995937;28;20058;-48
2022/04/02 03:52:43;;;;;;;9.93;2.38;;;;;;;8.58;46.72;101500.41;4999088;28;20071;-48
2022/04/02 03:55:13;;;;;;;4.35;2.38;;;;;;;8.28;46.87;101507.97;5016478;28;20023;-46
2022/04/02 03:57:41;;;;;;;7.88;1.88;;;;;;;8.52;46.95;101507.22;4995904;28;20065;-52
2022/04/02 04:00:10;;;;;;;4.93;2.13;;;;;;;8.52;46.48;101495.69;5008662;28;20085;-51
2022/04/02 04:02:40;;;;;;;5.63;2.22;;;;;;;8.40;46.63;101506.69;4995813;28;20037;-51
2022/04/02 04:05:10;;;;;;;5.40;1.92;;;;;;;8.63;46.10;101503.41;4979665;28;20034;-47
2022/04/02 04:07:37;;;;;;;3.28;1.70;;;;;;;8.56;46.09;101513.06;5002361;28;20034;-49
2022/04/02 04:10:04;;;;;;;6.82;2.50;;;;;;;8.49;46.29;101510.19;4998784;28;20034;-47
2022/04/02 04:12:32;;;;;;;2.67;1.52;;;;;;;8.18;46.42;101506.31;4995545;28;20035;-50
2022/04/02 04:14:58;;;;;;;4.68;2.20;;;;;;;8.45;46.12;101524.84;4997588;28;20038;-48
2022/04/02 04:17:24;;;;;;;8.57;2.40;;;;;;;8.43;45.80;101525.00;5012369;28;20053;-49
2022/04/02 04:19:51;;;;;;;3.08;1.80;;;;;;;8.40;46.31;101520.00;4995460;28;20031;-48
2022/04/02 04:22:18;;;;;;;6.40;2.00;;;;;;;8.39;45.84;101520.16;4982833;28;20026;-50
2022/04/02 04:24:45;;;;;;;5.60;2.10;;;;;;;8.35;46.65;101522.34;5015651;28;20030;-50
2022/04/02 04:27:11;;;;;;;5.40;1.70;;;;;;;8.61;45.61;101527.53;4998721;28;20064;-48
2022/04/02 04:29:41;;;;;;;6.88;1.80;;;;;;;8.53;46.60;101526.69;4998554;28;20061;-48
2022/04/02 04:32:07;;;;;;;4.97;2.60;;;;;;;8.57;46.04;101530.72;5014927;28;20050;-50
2022/04/02 04:34:33;;;;;;;4.35;1.65;;;;;;;8.64;45.94;101541.53;4994982;28;20042;-48
2022/04/02 04:36:58;;;;;;;5.43;2.20;;;;;;;8.61;46.04;101535.53;5013932;28;20038;-49
2022/04/02 04:39:25;;;;;;;5.25;1.63;;;;;;;8.58;46.35;101543.06;4998527;28;20294;-46
2022/04/02 04:41:53;;;;;;;4.80;2.33;;;;;;;8.49;46.42;101539.50;4998204;28;20035;-50
2022/04/02 04:44:24;;;;;;;6.97;2.25;;;;;;;8.45;46.31;101538.19;4995548;28;20103;-46
2022/04/02 04:46:50;;;;;;;;;;;;;;;8.47;46.13;101539.66;4998660;28;20022;-48
2022/04/02 04:49:18;;;;;;;5.22;2.58;;;;;;;8.47;46.07;101545.00;4998244;28;20336;-49
2022/04/02 04:51:52;;;;;;;5.97;2.05;;;;;;;8.54;46.18;101550.53;4994813;28;20111;-46
2022/04/02 04:54:18;;;;;;;4.47;2.03;;;;;;;8.46;46.57;101545.19;4995630;28;20042;-48
2022/04/02 04:56:45;;;;;;;4.20;2.20;;;;;;;8.41;46.69;101547.47;5011021;28;20034;-50
2022/04/02 04:59:16;;;;;;;6.30;2.40;;;;;;;8.42;46.48;101552.66;5013335;28;20073;-46
2022/04/02 05:01:43;;;;;;;8.23;2.03;;;;;;;8.43;46.82;101553.50;4998320;28;20089;-50
2022/04/02 05:04:09;;;;;;;5.40;2.05;;;;;;;8.40;46.79;101557.31;4994633;28;20035;-51
2022/04/02 05:06:41;;;;;;;7.22;2.72;;;;;;;8.51;46.87;101558.03;4998361;28;20061;-49
2022/04/02 05:09:06;;;;;;;;;;;;;;;8.29;47.58;101570.94;5013996;28;20091;-48
2022/04/02 05:11:37;;;;;;;8.70;2.40;;;;;;;8.27;47.88;101570.25;4994787;28;19918;-48
2022/04/02 05:14:06;;;;;;;6.07;2.10;;;;;;;8.29;48.06;101569.13;5006019;28;20038;-48
2022/04/02 05:16:32;;;;;;;4.05;1.70;;;;;;;8.26;48.06;101577.44;4997681;28;20030;-47
2022/04/02 05:18:59;;;;;;;6.72;2.63;;;;;;;8.25;48.38;101581.09;4997502;28;20038;-50
2022/04/02 05:21:25;;;;;;;8.77;2.58;;;;;;;8.36;48.33;101576.44;4997177;28;20034;-46
2022/04/02 05:23:51;;;;;;;6.80;2.80;;;;;;;8.38;47.98;101580.63;4997958;28;20038;-47
2022/04/02 05:26:17;;;;;;;4.47;2.30;;;;;;;8.36;48.08;101576.44;4981240;28;20069;-52
2022/04/02 05:28:46;;;;;;;5.32;2.60;;;;;;;8.30;48.10;101588.59;4996651;28;20101;-51
2022/04/02 05:31:12;;;;;;;7.65;2.33;;;;;;;8.14;48.30;101587.56;5014565;28;20031;-46
2022/04/02 05:33:38;;;;;;;4.07;2.07;;;;;;;8.11;49.36;101590.53;4997068;28;20053;-49
2022/04/02 05:36:05;;;;;;;4.60;2.55;;;;;;;8.16;48.83;101590.91;5014191;28;20343;-48
2022/04/02 05:38:31;;;;;;;8.80;2.90;;;;;;;8.40;48.27;101599.97;4997624;28;20539;-47
2022/04/02 05:40:56;;;;;;;5.95;2.15;;;;;;;8.36;48.16;101595.09;4995672;28;20034;-47
2022/04/02 05:43:22;;;;;;;8.40;2.70;;;;;;;8.29;48.42;101597.59;4997176;28;20061;-49
2022/04/02 05:45:47;;;;;;;5.00;2.63;;;;;;;8.29;48.33;101600.25;4994474;28;20030;-51
2022/04/02 05:48:14;;;;;;;9.03;3.73;;;;;;;8.37;48.29;101605.63;5007114;28;20133;-48
2022/04/02 05:50:39;;;;;;;9.15;3.85;;;;;;;8.43;48.17;101610.28;5014560;28;20042;-47
2022/04/02 05:53:05;;;;;;;4.10;2.38;;;;;;;8.49;48.05;101608.81;5014633;28;20038;-48
2022/04/02 05:55:32;;;;;;;6.73;2.80;;;;;;;8.56;48.05;101609.03;5014541;28;20043;-49
2022/04/02 05:57:57;;;;;;;7.50;2.50;;;;;;;8.44;48.44;101617.28;5014422;28;20042;-48
2022/04/02 06:00:24;;;;;;;6.30;2.40;;;;;;;8.53;48.16;101620.00;5014295;28;20050;-49
2022/04/02 06:02:50;;;;;;;9.88;2.67;;;;;;;8.58;48.17;101618.53;5014136;28;20035;-47
2022/04/02 06:05:15;;;;;;;4.63;2.10;;;;;;;8.55;48.47;101628.69;5014668;28;20078;-50
2022/04/02 06:07:41;;;;;;;5.97;2.67;;;;;;;8.55;48.53;101629.53;5014559;28;20105;-53
2022/04/02 06:10:09;;;;;;;5.15;2.42;;;;;;;8.60;48.34;101629.03;4981260;28;20037;-48
2022/04/02 06:12:34;;;;;;;6.20;2.92;;;;;;;8.60;48.51;101629.03;5014292;28;20101;-49
2022/04/02 06:15:00;;;;;;;8.30;2.45;;;;;;;8.39;49.07;101635.63;5014094;28;20042;-48
2022/04/02 06:17:26;;;;;;;5.30;2.92;;;;;;;8.25;49.79;101636.22;5014099;28;20046;-51
2022/04/02 06:19:52;;;;;;;5.25;2.40;;;;;;;8.42;49.33;101643.28;5014212;28;20040;-50
2022/04/02 06:22:18;;;;;;;6.22;2.20;;;;;;;8.56;49.02;101644.53;5014321;28;20115;-49
2022/04/02 06:24:43;;;;;;;4.72;2.22;;;;;;;8.45;49.24;101642.97;4994221;28;20038;-49
2022/04/02 06:27:09;;;;;;;9.57;3.00;;;;;;;8.40;49.50;101639.09;5013362;28;20034;-47
2022/04/02 06:29:34;;;;;;;7.17;2.87;;;;;;;8.54;49.54;101643.03;5014740;28;20068;-50
2022/04/02 06:32:00;;;;;;;6.70;2.60;;;;;;;8.51;49.49;101649.50;4997089;28;20046;-52
2022/04/02 06:34:25;;;;;;;5.95;2.17;;;;;;;8.52;49.53;101658.31;4984175;28;20044;-49
2022/04/02 06:36:51;;;;;;;6.57;2.57;;;;;;;8.55;49.51;101652.69;4997731;28;20039;-51
2022/04/02 06:39:17;;;;;;;5.50;2.78;;;;;;;8.61;49.22;101660.03;5017870;28;20065;-53
2022/04/02 06:41:42;;;;;;;5.43;1.80;;;;;;;8.58;49.66;101660.38;5018020;28;20038;-47
2022/04/02 06:44:08;;;;;;;5.17;1.87;;;;;;;8.67;49.44;101670.06;5015843;28;20043;-50
2022/04/02 06:46:35;;;;;;;6.78;2.63;;;;;;;8.73;49.43;101673.91;5017591;28;20114;-47
2022/04/02 06:49:01;;;;;;;9.02;2.70;;;;;;;8.81;49.21;101676.59;5016776;28;20038;-48
2022/04/02 06:51:26;;;;;;;7.93;2.83;;;;;;;8.86;49.32;101673.44;5017048;28;20094;-48
2022/04/02 06:53:52;;;;;;;5.15;2.70;;;;;;;8.90;49.72;101685.44;5017540;28;20038;-48
2022/04/02 06:56:18;;;;;;;8.48;2.38;;;;;;;9.02;49.48;101688.63;5017549;28;20045;-50
2022/04/02 06:58:43;;;;;;;11.73;3.20;;;;;;;9.08;49.03;101693.31;5017569;28;20057;-53
2022/04/02 07:01:09;;;;;;;7.30;3.43;;;;;;;9.22;49.16;101694.50;5017271;28;20038;-50
2022/04/02 07:03:35;;;;;;;6.13;3.10;;;;;;;9.31;48.96;101693.50;5017017;28;20042;-50
2022/04/02 07:06:00;;;;;;;7.50;3.10;;;;;;;9.33;48.92;101693.34;5017562;28;20034;-51
2022/04/02 07:08:26;;;;;;;10.43;2.97;;;;;;;9.53;48.54;101696.53;5016997;28;20049;-48
2022/04/02 07:10:51;;;;;;;7.70;2.73;;;;;;;9.61;48.17;101699.19;5016838;28;20030;-49
2022/04/02 07:13:17;;;;;;;8.18;3.17;;;;;;;9.77;48.15;101708.19;5017467;28;20041;-52
2022/04/02 07:15:42;;;;;;;9.77;3.30;;;;;;;9.78;48.32;101699.19;5017340;28;20034;-46
2022/04/02 07:18:10;;;;;;;11.13;5.33;;;;;;;9.95;48.33;101699.16;4996977;28;20074;-48
2022/04/02 07:20:39;;;;;;;10.02;4.13;;;;;;;9.94;48.33;101702.84;4999158;28;20038;-49
2022/04/02 07:23:09;;;;;;;8.88;3.20;;;;;;;10.12;48.05;101708.78;5016370;28;20073;-48
2022/04/02 07:25:39;;;;;;;8.27;3.42;;;;;;;10.13;47.82;101710.44;5016048;28;20035;-48
2022/04/02 07:28:07;;;;;;;6.68;3.35;;;;;;;10.10;48.14;101716.16;5016484;28;20030;-51
2022/04/02 07:30:34;;;;;;;10.85;3.38;;;;;;;10.07;48.08;101716.50;5016168;28;20049;-50
2022/04/02 07:33:00;;;;;;;7.72;3.05;;;;;;;10.04;48.07;101714.16;5016093;28;20030;-48
2022/04/02 07:35:51;;;;;;;;;;;;;;;10.29;48.42;101716.78;5016603;28;20046;-48
2022/04/02 07:38:36;;;;;;;10.02;3.90;;;;;;;10.46;48.27;101726.44;5016502;28;19945;-51
2022/04/02 07:41:26;;;;;;;10.82;4.18;;;;;;;10.61;48.43;101725.72;5003413;28;20056;-50
2022/04/02 07:44:32;;;;;;;6.93;2.80;;;;;;;10.76;47.80;101729.31;5006856;28;20061;-53
2022/04/02 07:46:59;;;;;;;5.72;3.05;;;;;;;10.92;47.25;101737.44;5011047;28;20042;-49
2022/04/02 07:49:27;;;;;;;9.48;3.22;;;;;;;10.84;47.60;101741.81;5016015;28;20046;-47
2022/04/02 07:51:54;;;;;;;8.57;2.78;;;;;;;10.60;47.91;101745.44;5015822;28;20057;-50
2022/04/02 07:54:26;;;;;;;6.75;2.85;;;;;;;10.67;48.19;101748.25;5015800;28;20034;-52
2022/04/02 07:57:02;;;;;;;9.45;3.13;;;;;;;10.44;49.17;101746.31;5015539;28;20101;-51
2022/04/02 07:59:34;;;;;;;8.75;3.90;;;;;;;11.07;47.43;101740.19;4995652;28;20034;-50
2022/04/02 08:02:02;;;;;;;7.35;3.88;;;;;;;11.25;47.46;101750.63;4998642;28;20057;-48
2022/04/02 08:04:29;;;;;;;5.45;3.53;;;;;;;11.49;46.81;101752.28;5015386;28;20038;-48
2022/04/02 08:06:55;;;;;;;8.25;3.58;;;;;;;11.71;46.17;101755.13;5014903;28;20034;-47
2022/04/02 08:09:26;;;;;;;6.20;3.28;;;;;;;11.06;46.99;101755.44;4993285;28;20031;-49
2022/04/02 08:11:51;;;;;;;8.45;3.05;;;;;;;11.61;47.15;101758.91;5004652;28;20042;-51
2022/04/02 08:14:22;;;;;;;6.30;3.03;;;;;;;11.55;47.05;101764.16;5015011;28;20545;-52
2022/04/02 08:16:49;;;;;;;7.15;3.28;;;;;;;11.75;46.19;101764.47;5015088;28;20042;-47
2022/04/02 08:19:20;;;;;;;5.13;2.65;;;;;;;11.90;45.95;101761.84;5015258;28;20041;-51
2022/04/02 08:21:45;;;;;;;7.10;3.05;;;;;;;11.77;46.06;101759.78;5015381;28;20030;-51
2022/04/02 08:24:11;;;;;;;4.23;2.63;;;;;;;11.39;47.21;101760.56;5015323;28;20034;-53
2022/04/02 08:27:01;;;;;;;6.40;3.13;;;;;;;11.60;47.16;101767.97;4995844;28;20036;-48
2022/04/02 08:29:56;;;;;;;5.05;3.10;;;;;;;11.83;46.70;101768.94;5015083;28;20279;-49
2022/04/02 08:32:36;;;;;;;7.30;2.85;;;;;;;12.00;45.51;101766.97;5012657;28;20037;-50
2022/04/02 08:35:13;;;;;;;7.40;3.58;;;;;;;12.19;46.41;101763.75;5012385;28;20053;-52
2022/04/02 08:38:07;;;;;;;5.15;3.00;;;;;;;12.29;46.54;101765.34;5012377;28;20038;-49
2022/04/02 08:41:11;;;;;;;9.07;3.30;;;;;;;12.56;46.07;101771.91;5013994;28;20042;-51
2022/04/02 08:44:06;;;;;;;8.25;3.80;;;;;;;12.47;44.46;101767.66;4954416;29;20063;-50
2022/04/02 08:46:52;;;;;;;7.80;2.55;;;;;;;12.90;43.85;101773.19;4920008;29;20055;-49
2022/04/02 08:49:25;;;;;;;8.18;3.03;;;;;;;13.26;42.20;101773.34;5003113;28;20042;-49
2022/04/02 08:52:18;;;;;;;6.88;2.90;;;;;;;13.43;41.72;101776.69;5014756;28;20090;-49
2022/04/02 08:55:09;;;;;;;9.52;3.10;;;;;;;13.90;40.66;101783.31;5012483;28;20064;-48
2022/04/02 08:57:53;;;;;;;9.50;3.08;;;;;;;13.91;40.61;101768.84;5000894;28;20042;-48
2022/04/02 09:00:24;;;;;;;5.78;3.00;;;;;;;13.71;41.54;101778.59;5010429;28;20061;-48
2022/04/02 09:03:13;;;;;;;7.72;2.63;;;;;;;14.22;41.53;101790.16;4992838;28;20044;-51
2022/04/02 09:06:10;;;;;;;5.00;2.60;;;;;;;14.30;41.11;101781.91;5005561;28;20057;-47
2022/04/02 09:08:50;;;;;;;7.20;2.40;;;;;;;13.95;39.28;101800.72;5012361;28;20054;-53
2022/04/02 09:11:48;;;;;;;6.03;2.65;;;;;;;14.03;38.19;101798.72;5013754;28;20090;-55
2022/04/02 09:14:32;;;;;;;8.15;3.13;;;;;;;14.26;39.63;101797.63;4963200;28;20046;-48
2022/04/02 09:17:35;;;;;;;5.22;2.90;;;;;;;14.57;37.43;101798.25;5014437;28;20066;-48
2022/04/02 09:20:07;;;;;;;6.13;3.08;;;;;;;14.86;37.81;101797.16;5013968;28;20039;-50
2022/04/02 09:22:54;;;;;;;7.32;3.40;;;;;;;14.57;38.33;101799.06;5014130;28;20054;-49
2022/04/02 09:26:13;;;;;;;10.48;3.25;;;;;;;14.18;40.61;101798.63;4998482;28;20138;-51
2022/04/02 09:29:11;;;;;;;5.20;3.20;;;;;;;14.42;39.50;101803.75;4993714;28;20066;-49
2022/04/02 09:32:13;;;;;;;12.63;3.50;;;;;;;15.26;37.71;101807.25;4986318;28;20046;-49
2022/04/02 09:35:01;;;;;;;8.33;3.80;;;;;;;17.63;34.41;101820.13;5013934;28;20110;-50
2022/04/02 09:37:51;;;;;;;5.67;2.80;;;;;;;19.06;33.47;101815.84;4999178;28;20295;-47
2022/04/02 09:40:18;;;;;;;6.40;3.47;;;;;;;20.02;31.11;101814.22;5014022;28;20296;-53
2022/04/02 09:42:51;;;;;;;7.83;3.20;;;;;;;20.15;32.39;101815.03;5013607;28;20347;-52
2022/04/02 09:45:21;;;;;;;7.47;3.37;;;;;;;19.83;31.19;101821.59;5014471;28;20331;-49
2022/04/02 09:48:06;;;;;;;6.87;3.50;;;;;;;19.34;32.77;101817.13;4996938;28;20343;-52
2022/04/02 09:50:32;;;;;;;8.40;3.50;;;;;;;18.99;31.30;101817.81;5014424;28;20283;-49
2022/04/02 09:53:05;;;;;;;4.50;2.42;;;;;;;17.96;35.41;101822.78;5013830;28;20307;-48
2022/04/02 09:55:53;;;;;;;7.17;3.10;;;;;;;16.78;35.56;101821.97;5013849;28;20077;-49
2022/04/02 09:58:58;;;;;;;6.00;3.00;;;;;;;16.52;37.31;101814.78;5014021;28;20319;-47
2022/04/02 10:01:39;;;;;;;6.00;3.50;;;;;;;16.83;34.13;101821.34;4981956;28;20272;-52
2022/04/02 10:04:35;;;;;;;7.33;3.90;;;;;;;16.50;36.00;101822.28;5013978;28;20631;-52
2022/04/02 10:07:03;;;;;;;5.87;2.73;;;;;;;15.89;35.96;101816.09;5018180;28;20290;-52
2022/04/02 10:09:35;;;;;;;5.23;2.50;;;;;;;15.94;37.83;101819.00;5017760;28;20334;-49
2022/04/02 10:12:02;;;;;;;3.87;2.20;;;;;;;16.96;37.46;101811.53;5018112;28;20295;-50
2022/04/02 10:14:29;;;;;;;6.73;2.77;;;;;;;19.28;30.44;101809.91;5018335;28;20355;-51
2022/04/02 10:16:57;;;;;;;8.33;2.87;;;;;;;19.28;31.04;101817.22;5018076;28;20271;-52
2022/04/02 10:19:29;;;;;;;14.83;8.17;;;;;;;17.92;34.13;101820.50;5001958;28;20348;-51
2022/04/02 10:22:11;;;;;;;8.13;4.90;;;;;;;17.25;33.95;101812.84;5018030;28;20342;-49
2022/04/02 10:24:48;;;;;;;10.30;2.83;;;;;;;16.01;32.17;101814.41;5017268;28;20263;-47
2022/04/02 10:27:31;;;;;;;12.18;6.70;;;;;;;16.23;32.50;101819.59;5017980;28;20276;-53
2022/04/02 10:29:59;;;;;;;11.80;5.63;;;;;;;16.17;34.93;101807.78;5017971;28;20042;-49
2022/04/02 10:32:43;;;;;;;5.47;3.20;;;;;;;19.37;29.16;101809.56;5017575;28;20861;-51
2022/04/02 10:35:11;;;;;;;9.63;5.03;;;;;;;20.63;27.26;101819.34;5016993;28;20284;-49
2022/04/02 10:37:48;;;;;;;11.60;5.10;;;;;;;21.56;26.55;101812.16;5017410;28;20343;-52
2022/04/02 10:40:17;;;;;;;4.90;2.35;;;;;;;22.51;27.46;101810.66;5017526;28;20268;-50
2022/04/02 10:42:52;;;;;;;6.90;2.50;;;;;;;22.69;23.90;101812.22;5017414;28;20043;-52
2022/04/02 10:45:20;;;;;;;6.63;2.60;;;;;;;22.55;23.31;101817.25;5016639;28;20038;-50
2022/04/02 10:47:56;;;;;;;4.73;2.70;;;;;;;23.34;22.70;101812.41;5015391;28;20034;-52
2022/04/02 10:50:25;;;;;;;4.85;2.75;;;;;;;23.31;24.61;101807.50;5016185;28;20038;-50
2022/04/02 10:52:51;;;;;;;5.63;3.00;;;;;;;21.40;23.95;101818.41;5016059;28;20042;-54
2022/04/02 10:55:17;;;;;;;;;;;;;;;20.08;26.67;101808.91;5015254;28;20057;-54
2022/04/02 10:57:44;;;;;;;5.80;2.80;;;;;;;19.70;28.64;101813.69;5015415;28;19913;-49
2022/04/02 11:00:10;;;;;;;5.40;2.67;;;;;;;18.66;27.24;101810.06;5015144;28;20034;-48
2022/04/02 11:02:40;;;;;;;4.63;2.17;;;;;;;18.32;27.35;101810.41;5014820;28;20073;-50
2022/04/02 11:05:07;;;;;;;7.40;2.83;;;;;;;17.52;28.37;101814.56;5015540;28;20109;-51
2022/04/02 11:07:45;;;;;;;4.10;2.00;;;;;;;16.66;28.76;101810.19;5015961;28;20284;-50
2022/04/02 11:10:13;;;;;;;6.03;2.00;;;;;;;16.76;29.24;101805.16;5015560;28;20332;-53
2022/04/02 11:12:44;;;;;;;5.40;2.20;;;;;;;16.78;28.14;101813.03;5015764;28;20606;-54
2022/04/02 11:15:10;;;;;;;5.00;2.40;;;;;;;16.57;30.24;101808.72;5015081;28;20335;-52
2022/04/02 11:17:38;;;;;;;4.50;2.15;;;;;;;16.08;28.98;101811.72;5015876;28;20275;-49
2022/04/02 11:20:22;;;;;;;5.10;1.93;;;;;;;16.35;34.77;101806.28;5015875;28;20134;-50
2022/04/02 11:22:51;;;;;;;7.30;2.63;;;;;;;17.04;28.45;101806.72;5015647;28;20291;-50
2022/04/02 11:25:24;;;;;;;6.63;2.27;;;;;;;17.10;27.92;101805.03;5015051;28;20271;-52
2022/04/02 11:27:56;;;;;;;6.03;2.50;;;;;;;17.64;28.05;101818.22;5015496;28;20283;-52
2022/04/02 11:30:26;;;;;;;8.00;2.63;;;;;;;18.47;31.13;101810.03;5015640;28;20286;-51
2022/04/02 11:32:52;;;;;;;8.57;4.73;;;;;;;21.18;23.56;101813.66;5015125;28;20276;-50
2022/04/02 11:35:22;;;;;;;9.23;3.47;;;;;;;22.95;23.68;101820.72;5014501;28;20296;-48
2022/04/02 11:38:06;;;;;;;6.50;2.70;;;;;;;24.55;23.83;101823.94;5014596;28;20030;-51
2022/04/02 11:40:36;;;;;;;6.80;3.17;;;;;;;22.54;27.23;101820.22;5012461;28;20042;-53
2022/04/02 11:43:02;;;;;;;5.27;2.70;;;;;;;21.36;26.18;101828.97;4980327;28;1015160;-49
2022/04/02 11:45:30;;;;;;;6.68;2.38;;;;;;;19.84;29.94;101825.97;5028613;28;20018;-54
2022/04/02 11:48:28;;;;;;;6.17;2.73;;;;;;;18.87;31.03;101820.44;5025085;28;20113;-53
2022/04/02 11:50:55;;;;;;;9.83;3.80;;;;;;;18.09;31.46;101833.53;5012206;28;20109;-51
2022/04/02 11:53:28;;;;;;;9.87;4.13;;;;;;;17.50;32.89;101833.72;5014252;28;20276;-51